createdAt,value
2023-04-13T00:01:14.092Z,98969.03
2023-04-13T00:03:46.259Z,98962.91
2023-04-13T00:06:15.653Z,98962.31
2023-04-13T00:08:45.141Z,98968.53
2023-04-13T00:11:13.488Z,98969.34
2023-04-13T00:14:04.427Z,98968.97
2023-04-13T00:16:31.848Z,98972.81
2023-04-13T00:18:58.805Z,98975.72
2023-04-13T00:21:25.975Z,98983.56
2023-04-13T00:23:58.795Z,98982.84
2023-04-13T00:26:26.013Z,98977.81
2023-04-13T00:28:54.940Z,98982.31
2023-04-13T00:31:23.579Z,98978.28
2023-04-13T00:33:50.701Z,98972.78
2023-04-13T00:36:17.889Z,98973.63
2023-04-13T00:39:06.314Z,98982.56
2023-04-13T00:41:33.241Z,98982.34
2023-04-13T00:44:02.727Z,98971.34
2023-04-13T00:46:29.957Z,98974.88
2023-04-13T00:48:58.291Z,98974.28
2023-04-13T00:51:25.302Z,98974.75
2023-04-13T00:53:55.162Z,98970.53
2023-04-13T00:56:23.112Z,98976.97
2023-04-13T00:58:50.130Z,98976.38
2023-04-13T01:01:19.475Z,98972.72
2023-04-13T01:03:49.266Z,98973.16
2023-04-13T01:06:29.601Z,98977.25
2023-04-13T01:09:11.454Z,98978.53
2023-04-13T01:11:44.035Z,98976.09
2023-04-13T01:14:23.406Z,98979.66
2023-04-13T01:17:06.010Z,98972.44
2023-04-13T01:19:56.878Z,98974.16
2023-04-13T01:22:34.163Z,98978.94
2023-04-13T01:25:22.428Z,98979.16
2023-04-13T01:27:55.717Z,98979.63
2023-04-13T01:30:26.388Z,98976.69
2023-04-13T01:32:58.809Z,98972.84
2023-04-13T01:35:30.245Z,98970.59
2023-04-13T01:37:59.065Z,98971.41
2023-04-13T01:40:29.860Z,98971.63
2023-04-13T01:42:58.176Z,98977.66
2023-04-13T01:45:48.470Z,98973.13
2023-04-13T01:48:42.385Z,98970.31
2023-04-13T01:51:32.365Z,98979.84
2023-04-13T01:54:08.046Z,98986.47
2023-04-13T01:56:35.961Z,98982.97
2023-04-13T01:59:03.505Z,98987.28
2023-04-13T02:01:30.741Z,98981.47
2023-04-13T02:03:59.629Z,98978.34
2023-04-13T02:06:31.028Z,98979.38
2023-04-13T02:08:59.500Z,98978.34
2023-04-13T02:11:28.621Z,98979.78
2023-04-13T02:13:58.268Z,98974.56
2023-04-13T02:16:25.637Z,98963.72
2023-04-13T02:18:52.837Z,98968.34
2023-04-13T02:21:20.684Z,98966.03
2023-04-13T02:23:48.267Z,98976.09
2023-04-13T02:26:18.956Z,98969.00
2023-04-13T02:28:50.145Z,98978.47
2023-04-13T02:31:20.540Z,98967.25
2023-04-13T02:33:48.946Z,98973.84
2023-04-13T02:36:19.241Z,98972.09
2023-04-13T02:38:54.750Z,98965.22
2023-04-13T02:41:44.827Z,98968.28
2023-04-13T02:44:18.360Z,98961.88
2023-04-13T02:46:57.778Z,98961.03
2023-04-13T02:49:27.075Z,98964.91
2023-04-13T02:52:14.220Z,98973.09
2023-04-13T02:54:54.391Z,98972.88
2023-04-13T02:57:25.349Z,98974.88
2023-04-13T02:59:54.408Z,98975.84
2023-04-13T03:02:23.677Z,98978.66
2023-04-13T03:04:56.264Z,98975.03
2023-04-13T03:07:26.800Z,98971.06
2023-04-13T03:09:54.034Z,98973.91
2023-04-13T03:12:21.030Z,98984.44
2023-04-13T03:14:51.760Z,98978.59
2023-04-13T03:17:21.694Z,98977.53
2023-04-13T03:19:49.790Z,98968.44
2023-04-13T03:22:19.948Z,98978.13
2023-04-13T03:24:50.173Z,98979.78
2023-04-13T03:27:24.203Z,98976.84
2023-04-13T03:29:54.168Z,98984.09
2023-04-13T03:32:22.855Z,98978.50
2023-04-13T03:34:56.916Z,98975.22
2023-04-13T03:37:24.402Z,98978.88
2023-04-13T03:39:57.290Z,98978.06
2023-04-13T03:42:26.627Z,98976.19
2023-04-13T03:44:57.856Z,98982.16
2023-04-13T03:47:28.607Z,98981.91
2023-04-13T03:49:58.604Z,98979.22
2023-04-13T03:52:29.105Z,98984.38
2023-04-13T03:55:00.232Z,98984.38
2023-04-13T03:57:31.720Z,98976.78
2023-04-13T04:00:00.370Z,98988.25
2023-04-13T04:02:42.123Z,98997.03
2023-04-13T04:05:14.875Z,98994.22
2023-04-13T04:07:43.753Z,98989.22
2023-04-13T04:10:11.070Z,98987.22
2023-04-13T04:12:39.308Z,98985.47
2023-04-13T04:15:08.709Z,98992.38
2023-04-13T04:17:39.411Z,98993.53
2023-04-13T04:20:10.639Z,98996.34
2023-04-13T04:22:37.905Z,98986.75
2023-04-13T04:25:06.406Z,98995.28
2023-04-13T04:27:38.548Z,98985.13
2023-04-13T04:30:10.987Z,98999.06
2023-04-13T04:32:41.851Z,98996.69
2023-04-13T04:35:18.176Z,99000.69
2023-04-13T04:37:56.042Z,99000.78
2023-04-13T04:40:25.720Z,99000.03
2023-04-13T04:42:52.696Z,99002.63
2023-04-13T04:45:29.917Z,99008.47
2023-04-13T04:47:59.896Z,99010.22
2023-04-13T04:50:37.591Z,99007.03
2023-04-13T04:53:15.093Z,99002.56
2023-04-13T04:55:46.605Z,99005.13
2023-04-13T04:58:27.305Z,99006.84
2023-04-13T05:00:57.345Z,99000.50
2023-04-13T05:03:25.002Z,99003.88
2023-04-13T05:06:02.701Z,99001.28
2023-04-13T05:08:35.415Z,98994.91
2023-04-13T05:11:06.298Z,98997.22
2023-04-13T05:13:33.666Z,98982.19
2023-04-13T05:16:20.210Z,98976.88
2023-04-13T05:18:48.478Z,98987.56
2023-04-13T05:21:33.353Z,98978.50
2023-04-13T05:24:04.468Z,98974.59
2023-04-13T05:26:32.875Z,98971.78
2023-04-13T05:29:01.501Z,98972.50
2023-04-13T05:31:33.993Z,98965.19
2023-04-13T05:34:01.837Z,98976.22
2023-04-13T05:36:29.331Z,98971.44
2023-04-13T05:39:01.479Z,98973.22
2023-04-13T05:41:31.060Z,98966.56
2023-04-13T05:44:26.021Z,98975.63
2023-04-13T05:46:55.368Z,98977.50
2023-04-13T05:49:22.306Z,98961.28
2023-04-13T05:51:51.296Z,98974.41
2023-04-13T05:54:19.815Z,98968.19
2023-04-13T05:56:49.317Z,98971.44
2023-04-13T05:59:16.587Z,98963.91
2023-04-13T06:01:47.058Z,98964.94
2023-04-13T06:04:16.399Z,98979.88
2023-04-13T06:06:44.886Z,98960.69
2023-04-13T06:09:13.414Z,98953.16
2023-04-13T06:11:40.610Z,98978.53
2023-04-13T06:14:08.259Z,98974.84
2023-04-13T06:16:35.402Z,98976.31
2023-04-13T06:19:07.610Z,98980.69
2023-04-13T06:21:38.100Z,98982.69
2023-04-13T06:24:05.681Z,98981.34
2023-04-13T06:26:38.168Z,98984.63
2023-04-13T06:29:05.636Z,98985.53
2023-04-13T06:31:42.119Z,98984.78
2023-04-13T06:34:14.023Z,98981.59
2023-04-13T06:36:41.426Z,98981.38
2023-04-13T06:39:15.548Z,98963.97
2023-04-13T06:41:48.378Z,98976.28
2023-04-13T06:44:24.077Z,98977.72
2023-04-13T06:47:00.147Z,98980.72
2023-04-13T06:49:34.057Z,98978.00
2023-04-13T06:52:09.374Z,98984.28
2023-04-13T06:54:36.449Z,98986.78
2023-04-13T06:57:17.848Z,98986.88
2023-04-13T06:59:47.791Z,98995.66
2023-04-13T07:02:14.828Z,98999.50
2023-04-13T07:04:42.284Z,98991.75
2023-04-13T07:07:12.947Z,98997.47
2023-04-13T07:09:40.318Z,98997.00
2023-04-13T07:12:07.935Z,99008.47
2023-04-13T07:14:38.382Z,99000.38
2023-04-13T07:17:07.282Z,98995.41
2023-04-13T07:19:36.300Z,98991.78
2023-04-13T07:22:09.266Z,99004.47
2023-04-13T07:24:36.877Z,99000.88
2023-04-13T07:27:08.847Z,99002.81
2023-04-13T07:29:35.906Z,98989.03
2023-04-13T07:32:08.681Z,99000.72
2023-04-13T07:34:38.173Z,99001.31
2023-04-13T07:37:05.236Z,99002.09
2023-04-13T07:39:33.448Z,99007.16
2023-04-13T07:42:02.276Z,99008.69
2023-04-13T07:44:46.265Z,99007.78
2023-04-13T07:47:14.308Z,99003.19
2023-04-13T07:49:54.323Z,98996.78
2023-04-13T07:52:27.147Z,98981.63
2023-04-13T07:54:54.481Z,98979.66
2023-04-13T07:57:22.488Z,98985.66
2023-04-13T07:59:56.073Z,98984.13
2023-04-13T08:02:24.067Z,98982.09
2023-04-13T08:04:54.586Z,98988.03
2023-04-13T08:07:27.425Z,98983.03
2023-04-13T08:09:54.500Z,98979.50
2023-04-13T08:12:24.913Z,98961.63
2023-04-13T08:14:54.430Z,98974.69
2023-04-13T08:17:24.661Z,98975.16
2023-04-13T08:19:54.816Z,98973.72
2023-04-13T08:22:22.236Z,98974.50
2023-04-13T08:24:53.412Z,98971.75
2023-04-13T08:27:27.314Z,98962.38
2023-04-13T08:30:02.686Z,98970.91
2023-04-13T08:32:44.189Z,98976.59
2023-04-13T08:35:12.607Z,98963.94
2023-04-13T08:37:40.324Z,98986.56
2023-04-13T08:40:16.200Z,98991.00
2023-04-13T08:42:44.752Z,98974.03
2023-04-13T08:45:16.913Z,98988.41
2023-04-13T08:47:47.337Z,98987.13
2023-04-13T08:50:17.104Z,98988.13
2023-04-13T08:52:48.129Z,98993.63
2023-04-13T08:55:18.043Z,98987.19
2023-04-13T08:57:51.413Z,98988.16
2023-04-13T09:00:19.967Z,98973.75
2023-04-13T09:03:03.654Z,98982.91
2023-04-13T09:05:34.211Z,98998.53
2023-04-13T09:08:08.022Z,98991.38
2023-04-13T09:10:37.677Z,98994.94
2023-04-13T09:13:07.844Z,98988.66
2023-04-13T09:15:35.076Z,98998.22
2023-04-13T09:18:20.710Z,98991.91
2023-04-13T09:21:00.433Z,98998.63
2023-04-13T09:23:27.649Z,98989.69
2023-04-13T09:26:07.943Z,98985.31
2023-04-13T09:28:45.834Z,98986.47
2023-04-13T09:31:14.027Z,98991.81
2023-04-13T09:33:49.986Z,98983.84
2023-04-13T09:36:21.190Z,98987.13
2023-04-13T09:38:55.455Z,98986.94
2023-04-13T09:41:36.370Z,98983.16
2023-04-13T09:44:25.036Z,98974.84
2023-04-13T09:47:02.697Z,98980.78
2023-04-13T09:49:41.911Z,98968.53
2023-04-13T09:52:24.565Z,98966.13
2023-04-13T09:54:53.876Z,98970.94
2023-04-13T09:57:31.400Z,98967.50
2023-04-13T10:00:05.793Z,98962.28
2023-04-13T10:02:39.863Z,98957.81
2023-04-13T10:08:05.559Z,98953.66
2023-04-13T10:10:37.047Z,98962.97
2023-04-13T10:13:17.972Z,98933.69
2023-04-13T10:16:12.930Z,98954.22
2023-04-13T10:19:04.922Z,98956.28
2023-04-13T10:21:39.663Z,98952.94
2023-04-13T10:24:23.968Z,98953.81
2023-04-13T10:26:54.576Z,98954.50
2023-04-13T10:29:32.933Z,98941.91
2023-04-13T10:32:03.957Z,98946.19
2023-04-13T10:34:36.024Z,98946.22
2023-04-13T10:37:07.510Z,98952.81
2023-04-13T10:39:36.158Z,98958.72
2023-04-13T10:42:08.073Z,98959.84
2023-04-13T10:44:50.318Z,98956.25
2023-04-13T10:47:20.804Z,98955.16
2023-04-13T10:49:50.821Z,98943.97
2023-04-13T10:52:18.059Z,98934.19
2023-04-13T10:54:45.485Z,98952.00
2023-04-13T10:57:13.153Z,98955.47
2023-04-13T10:59:56.194Z,98955.22
2023-04-13T11:02:33.181Z,98963.69
2023-04-13T11:05:02.638Z,98949.13
2023-04-13T11:07:30.295Z,98952.00
2023-04-13T11:10:03.931Z,98946.91
2023-04-13T11:12:34.336Z,98948.22
2023-04-13T11:15:02.304Z,98948.63
2023-04-13T11:17:35.691Z,98948.63
2023-04-13T11:20:07.092Z,98960.91
2023-04-13T11:22:39.059Z,98954.66
2023-04-13T11:25:10.005Z,98945.41
2023-04-13T11:27:38.178Z,98950.75
2023-04-13T11:30:06.954Z,98952.66
2023-04-13T11:32:34.610Z,98941.78
2023-04-13T11:35:14.124Z,98935.28
2023-04-13T11:37:49.616Z,98939.53
2023-04-13T11:40:20.410Z,98950.97
2023-04-13T11:42:56.831Z,98931.19
2023-04-13T11:45:26.941Z,98946.25
2023-04-13T11:47:55.666Z,98946.66
2023-04-13T11:50:23.532Z,98946.41
2023-04-13T11:52:57.140Z,98942.19
2023-04-13T11:55:27.710Z,98951.53
2023-04-13T11:57:55.312Z,98931.69
2023-04-13T12:00:27.162Z,98937.63
2023-04-13T12:05:32.354Z,98923.16
2023-04-13T12:08:09.483Z,98930.31
2023-04-13T12:10:42.558Z,98923.22
2023-04-13T12:13:28.591Z,98920.97
2023-04-13T12:18:37.421Z,98908.28
2023-04-13T12:21:08.052Z,98912.31
2023-04-13T12:23:35.502Z,98903.13
2023-04-13T12:26:32.103Z,98902.25
2023-04-13T12:28:59.465Z,98912.00
2023-04-13T12:31:39.191Z,98896.53
2023-04-13T12:34:07.959Z,98894.53
2023-04-13T12:36:36.641Z,98882.38
2023-04-13T12:39:07.029Z,98892.50
2023-04-13T12:41:37.028Z,98883.13
2023-04-13T12:44:04.421Z,98887.00
2023-04-13T12:46:32.474Z,98881.09
2023-04-13T12:49:00.037Z,98871.88
2023-04-13T12:51:27.195Z,98876.94
2023-04-13T12:53:54.249Z,98876.09
2023-04-13T12:56:26.660Z,98869.28
2023-04-13T12:58:53.990Z,98890.16
2023-04-13T13:01:22.143Z,98877.19
2023-04-13T13:03:49.291Z,98899.66
2023-04-13T13:06:16.343Z,98883.50
2023-04-13T13:08:43.513Z,98877.69
2023-04-13T13:11:11.279Z,98869.13
2023-04-13T13:13:38.404Z,98880.59
2023-04-13T13:16:11.075Z,98865.78
2023-04-13T13:18:50.315Z,98874.78
2023-04-13T13:21:19.655Z,98872.72
2023-04-13T13:23:46.715Z,98870.28
2023-04-13T13:28:47.231Z,98895.63
2023-04-13T13:31:15.696Z,98891.25
2023-04-13T13:33:42.850Z,98872.28
2023-04-13T13:36:09.863Z,98882.19
2023-04-13T13:39:02.501Z,98880.41
2023-04-13T13:41:29.655Z,98874.63
2023-04-13T13:44:00.747Z,98872.34
2023-04-13T13:46:27.993Z,98877.38
2023-04-13T13:48:56.671Z,98877.03
2023-04-13T13:51:45.377Z,98879.81
2023-04-13T13:54:23.024Z,98894.66
2023-04-13T13:56:50.176Z,98885.47
2023-04-13T13:59:17.081Z,98873.78
2023-04-13T14:02:02.922Z,98894.09
2023-04-13T14:04:32.501Z,98872.69
2023-04-13T14:07:00.185Z,98904.16
2023-04-13T14:09:27.965Z,98875.59
2023-04-13T14:11:55.034Z,98894.19
2023-04-13T14:14:23.507Z,98874.53
2023-04-13T14:16:50.711Z,98878.69
2023-04-13T14:19:20.864Z,98883.38
2023-04-13T14:21:49.156Z,98879.88
2023-04-13T14:24:16.839Z,98876.06
2023-04-13T14:26:46.974Z,98884.63
2023-04-13T14:29:13.886Z,98883.94
2023-04-13T14:31:40.873Z,98877.59
2023-04-13T14:34:08.043Z,98885.03
2023-04-13T14:36:37.868Z,98881.13
2023-04-13T14:39:05.492Z,98876.53
2023-04-13T14:41:32.390Z,98878.97
2023-04-13T14:43:59.288Z,98884.34
2023-04-13T14:46:28.229Z,98879.00
2023-04-13T14:49:03.000Z,98886.53
2023-04-13T14:51:34.085Z,98885.97
2023-04-13T14:54:01.132Z,98885.97
2023-04-13T14:56:28.382Z,98889.50
2023-04-13T14:59:00.735Z,98882.56
2023-04-13T15:01:46.545Z,98899.94
2023-04-13T15:04:14.346Z,98906.53
2023-04-13T15:06:42.045Z,98906.69
2023-04-13T15:09:13.123Z,98895.75
2023-04-13T15:11:42.998Z,98917.38
2023-04-13T15:14:12.490Z,98935.28
2023-04-13T15:16:39.528Z,98912.31
2023-04-13T15:19:43.814Z,98929.47
2023-04-13T15:22:50.901Z,98933.50
2023-04-13T15:25:38.212Z,98931.59
2023-04-13T15:28:05.262Z,98937.22
2023-04-13T15:30:35.823Z,98944.69
2023-04-13T15:33:04.735Z,98932.78
2023-04-13T15:35:34.969Z,98929.06
2023-04-13T15:38:02.536Z,98939.44
2023-04-13T15:40:33.046Z,98945.44
2023-04-13T15:43:21.653Z,98933.50
2023-04-13T15:45:48.612Z,98947.13
2023-04-13T15:48:15.954Z,98946.56
2023-04-13T15:50:43.012Z,98941.66
2023-04-13T15:53:10.044Z,98956.84
2023-04-13T15:55:37.217Z,98962.00
2023-04-13T15:58:06.940Z,98954.09
2023-04-13T16:00:57.545Z,98966.00
2023-04-13T16:03:24.871Z,98974.66
2023-04-13T16:05:52.092Z,98968.63
2023-04-13T16:08:20.199Z,98994.69
2023-04-13T16:10:50.668Z,98985.94
2023-04-13T16:13:48.887Z,98989.94
2023-04-13T16:16:18.370Z,99000.25
2023-04-13T16:19:04.333Z,98999.03
2023-04-13T16:21:54.067Z,98995.66
2023-04-13T16:27:54.870Z,98997.94
2023-04-13T16:34:26.597Z,99035.41
2023-04-13T16:37:00.936Z,99042.38
2023-04-13T16:39:47.159Z,99032.81
2023-04-13T16:42:14.858Z,99049.47
2023-04-13T16:45:19.019Z,99046.72
2023-04-13T16:47:46.326Z,99061.81
2023-04-13T16:50:16.475Z,99059.56
2023-04-13T16:52:43.768Z,99063.81
2023-04-13T16:55:15.025Z,99075.16
2023-04-13T16:57:45.658Z,99063.22
2023-04-13T17:00:15.031Z,99075.03
2023-04-13T17:02:43.270Z,99064.16
2023-04-13T17:05:15.205Z,99071.22
2023-04-13T17:08:02.677Z,99072.78
2023-04-13T17:11:10.900Z,99074.59
2023-04-13T17:13:56.728Z,99068.22
2023-04-13T17:16:29.639Z,99080.47
2023-04-13T17:19:40.615Z,99083.97
2023-04-13T17:22:26.725Z,99087.41
2023-04-13T17:25:12.734Z,99094.91
2023-04-13T17:27:40.019Z,99094.81
2023-04-13T17:30:11.626Z,99083.13
2023-04-13T17:32:58.795Z,99083.22
2023-04-13T17:35:28.474Z,99084.47
2023-04-13T17:38:33.187Z,99095.19
2023-04-13T17:41:01.188Z,99086.41
2023-04-13T17:43:28.783Z,99097.47
2023-04-13T17:48:41.476Z,99108.44
2023-04-13T17:51:11.422Z,99120.63
2023-04-13T17:53:40.773Z,99115.59
2023-04-13T17:56:33.009Z,99123.22
2023-04-13T17:59:00.893Z,99113.81
2023-04-13T18:01:47.178Z,99114.75
2023-04-13T18:04:36.111Z,99128.03
2023-04-13T18:07:03.527Z,99107.31
2023-04-13T18:09:31.489Z,99116.72
2023-04-13T18:11:58.484Z,99128.81
2023-04-13T18:14:25.945Z,99122.66
2023-04-13T18:16:53.065Z,99123.50
2023-04-13T18:19:25.828Z,99126.44
2023-04-13T18:21:53.244Z,99129.72
2023-04-13T18:24:23.100Z,99131.50
2023-04-13T18:26:50.205Z,99132.31
2023-04-13T18:29:17.531Z,99136.97
2023-04-13T18:31:45.591Z,99137.16
2023-04-13T18:34:14.049Z,99138.41
2023-04-13T18:36:42.386Z,99145.66
2023-04-13T18:39:09.413Z,99143.13
2023-04-13T18:41:36.700Z,99147.00
2023-04-13T18:44:03.915Z,99144.19
2023-04-13T18:46:31.072Z,99148.19
2023-04-13T18:49:03.806Z,99132.25
2023-04-13T18:51:35.269Z,99129.59
2023-04-13T18:54:03.972Z,99153.38
2023-04-13T18:56:37.484Z,99140.97
2023-04-13T18:59:23.351Z,99148.34
2023-04-13T19:01:51.365Z,99152.91
2023-04-13T19:04:24.420Z,99148.31
2023-04-13T19:06:52.415Z,99134.41
2023-04-13T19:09:19.419Z,99142.25
2023-04-13T19:11:50.956Z,99131.69
2023-04-13T19:14:18.114Z,99147.63
2023-04-13T19:16:47.342Z,99157.94
2023-04-13T19:19:15.853Z,99152.28
2023-04-13T19:21:45.878Z,99158.81
2023-04-13T19:24:13.495Z,99140.69
2023-04-13T19:26:41.170Z,99165.72
2023-04-13T19:29:13.296Z,99154.22
2023-04-13T19:31:42.902Z,99160.75
2023-04-13T19:34:13.694Z,99165.19
2023-04-13T19:36:41.459Z,99147.97
2023-04-13T19:39:09.225Z,99141.84
2023-04-13T19:41:38.086Z,99161.28
2023-04-13T19:44:08.141Z,99167.94
2023-04-13T19:46:39.128Z,99170.47
2023-04-13T19:49:07.112Z,99171.03
2023-04-13T19:51:37.869Z,99162.81
2023-04-13T19:54:06.186Z,99169.66
2023-04-13T19:56:36.664Z,99179.66
2023-04-13T19:59:05.372Z,99180.31
2023-04-13T20:01:33.762Z,99185.84
2023-04-13T20:04:02.402Z,99187.59
2023-04-13T20:06:30.284Z,99190.72
2023-04-13T20:09:16.633Z,99189.63
2023-04-13T20:11:44.106Z,99184.28
2023-04-13T20:14:13.868Z,99210.06
2023-04-13T20:16:56.050Z,99186.63
2023-04-13T20:19:24.463Z,99214.84
2023-04-13T20:21:51.884Z,99205.81
2023-04-13T20:24:19.464Z,99200.88
2023-04-13T20:26:47.536Z,99206.31
2023-04-13T20:29:21.823Z,99202.44
2023-04-13T20:31:49.187Z,99203.25
2023-04-13T20:34:24.930Z,99199.97
2023-04-13T20:36:53.069Z,99200.63
2023-04-13T20:39:25.533Z,99201.44
2023-04-13T20:41:55.978Z,99209.34
2023-04-13T20:44:24.956Z,99201.22
2023-04-13T20:46:58.305Z,99211.56
2023-04-13T20:49:25.245Z,99212.00
2023-04-13T20:51:53.843Z,99218.47
2023-04-13T20:54:24.047Z,99224.50
2023-04-13T20:56:51.333Z,99221.66
2023-04-13T20:59:20.603Z,99217.16
2023-04-13T21:01:49.280Z,99223.78
2023-04-13T21:04:16.897Z,99209.22
2023-04-13T21:06:44.993Z,99210.50
2023-04-13T21:09:12.040Z,99212.19
2023-04-13T21:11:44.820Z,99221.91
2023-04-13T21:14:11.912Z,99226.53
2023-04-13T21:16:39.062Z,99219.94
2023-04-13T21:19:06.216Z,99221.38
2023-04-13T21:21:33.094Z,99215.09
2023-04-13T21:24:00.310Z,99231.63
2023-04-13T21:26:27.452Z,99223.00
2023-04-13T21:28:58.941Z,99230.41
2023-04-13T21:31:25.896Z,99222.63
2023-04-13T21:33:53.016Z,99224.31
2023-04-13T21:38:53.546Z,99237.56
2023-04-13T21:41:21.360Z,99227.91
2023-04-13T21:43:48.674Z,99249.97
2023-04-13T21:46:16.047Z,99248.72
2023-04-13T21:48:43.139Z,99233.06
2023-04-13T21:51:10.231Z,99232.69
2023-04-13T21:53:38.120Z,99250.81
2023-04-13T21:56:05.792Z,99250.59
2023-04-13T21:58:41.045Z,99254.53
2023-04-13T22:01:08.811Z,99259.25
2023-04-13T22:03:37.942Z,99257.41
2023-04-13T22:06:06.813Z,99261.53
2023-04-13T22:08:33.995Z,99260.28
2023-04-13T22:11:01.453Z,99253.69
2023-04-13T22:13:28.701Z,99259.44
2023-04-13T22:15:56.063Z,99256.56
2023-04-13T22:18:23.727Z,99256.16
2023-04-13T22:20:54.185Z,99259.25
2023-04-13T22:23:21.094Z,99263.16
2023-04-13T22:25:58.879Z,99246.25
2023-04-13T22:28:26.428Z,99248.31
2023-04-13T22:30:53.477Z,99248.69
2023-04-13T22:33:23.624Z,99248.72
2023-04-13T22:35:50.820Z,99236.75
2023-04-13T22:38:20.772Z,99244.16
2023-04-13T22:40:49.434Z,99251.50
2023-04-13T22:43:19.590Z,99259.31
2023-04-13T22:45:46.670Z,99268.78
2023-04-13T22:48:13.647Z,99265.66
2023-04-13T22:50:40.816Z,99263.22
2023-04-13T22:53:09.465Z,99254.56
2023-04-13T22:55:36.654Z,99264.81
2023-04-13T22:58:03.691Z,99270.38
2023-04-13T23:00:34.538Z,99273.25
2023-04-13T23:03:01.756Z,99277.94
2023-04-13T23:05:28.958Z,99272.59
2023-04-13T23:07:55.974Z,99286.38
2023-04-13T23:10:22.967Z,99278.13
2023-04-13T23:12:50.851Z,99290.03
2023-04-13T23:15:17.740Z,99279.47
2023-04-13T23:17:44.661Z,99283.97
2023-04-13T23:20:15.480Z,99280.47
2023-04-13T23:22:42.469Z,99276.94
2023-04-13T23:25:09.585Z,99284.69
2023-04-13T23:27:36.525Z,99282.66
2023-04-13T23:30:04.889Z,99275.78
2023-04-13T23:32:32.060Z,99290.94
2023-04-13T23:34:59.642Z,99299.53
2023-04-13T23:37:26.649Z,99296.19
2023-04-13T23:39:53.585Z,99304.78
2023-04-13T23:42:21.237Z,99305.16
2023-04-13T23:44:48.304Z,99308.22
2023-04-13T23:47:15.487Z,99316.59
2023-04-13T23:49:42.471Z,99304.72
2023-04-13T23:52:10.040Z,99308.41
2023-04-13T23:54:39.510Z,99322.78
2023-04-13T23:57:10.469Z,99313.88
2023-04-13T23:59:40.601Z,99310.50
